createdAt,value
2019-03-25T00:01:14.288Z,6.51
2019-03-25T00:06:23.358Z,6.81
2019-03-25T00:11:32.457Z,7.25
2019-03-25T00:16:41.491Z,7.97
2019-03-25T00:21:50.622Z,6.40
2019-03-25T00:26:59.661Z,6.95
2019-03-25T00:32:08.775Z,7.21
2019-03-25T00:37:17.825Z,6.98
2019-03-25T00:42:26.903Z,5.46
2019-03-25T00:47:35.926Z,4.37
2019-03-25T00:52:45.058Z,5.00
2019-03-25T00:57:54.102Z,5.07
2019-03-25T01:03:03.279Z,4.82
2019-03-25T01:08:12.349Z,5.49
2019-03-25T01:13:21.455Z,5.54
2019-03-25T01:18:30.585Z,5.35
2019-03-25T01:23:39.800Z,6.94
2019-03-25T01:28:48.871Z,7.29
2019-03-25T01:33:58.006Z,6.50
2019-03-25T01:39:07.101Z,6.25
2019-03-25T01:44:16.213Z,5.87
2019-03-25T01:49:25.249Z,5.20
2019-03-25T01:54:34.449Z,5.26
2019-03-25T01:59:43.495Z,5.50
2019-03-25T02:04:52.636Z,5.54
2019-03-25T02:10:01.675Z,4.59
2019-03-25T02:15:10.822Z,5.49
2019-03-25T02:20:26.361Z,5.48
2019-03-25T02:25:28.507Z,5.42
2019-03-25T02:30:37.528Z,5.98
2019-03-25T02:35:46.674Z,5.98
2019-03-25T02:40:55.750Z,5.89
2019-03-25T02:46:04.865Z,6.61
2019-03-25T02:51:13.936Z,6.04
2019-03-25T02:56:23.042Z,5.57
2019-03-25T03:01:32.183Z,4.92
2019-03-25T03:06:41.297Z,5.01
2019-03-25T03:11:50.450Z,4.00
2019-03-25T03:16:59.551Z,3.73
2019-03-25T03:22:08.617Z,4.22
2019-03-25T03:27:17.720Z,3.74
2019-03-25T03:32:26.734Z,4.46
2019-03-25T03:37:35.927Z,4.57
2019-03-25T03:42:45.033Z,4.72
2019-03-25T03:47:54.124Z,4.43
2019-03-25T03:53:03.193Z,3.66
2019-03-25T03:58:12.330Z,3.43
2019-03-25T04:03:21.387Z,3.19
2019-03-25T04:08:30.531Z,3.55
2019-03-25T04:13:39.579Z,4.06
2019-03-25T04:18:48.719Z,3.77
2019-03-25T04:23:57.791Z,3.64
2019-03-25T04:29:06.922Z,2.82
2019-03-25T04:34:15.962Z,3.02
2019-03-25T04:39:25.076Z,3.13
2019-03-25T04:44:34.134Z,3.73
2019-03-25T04:49:43.253Z,3.47
2019-03-25T04:54:52.358Z,3.05
2019-03-25T05:00:01.482Z,3.57
2019-03-25T05:05:10.585Z,2.96
2019-03-25T05:10:19.651Z,2.54
2019-03-25T05:15:28.686Z,2.65
2019-03-25T05:20:37.829Z,2.60
2019-03-25T05:22:02.653Z,3.01
2019-03-25T05:27:01.656Z,2.09
2019-03-25T05:32:10.871Z,2.59
2019-03-25T05:37:19.958Z,2.45
2019-03-25T05:42:29.118Z,2.86
2019-03-25T05:47:38.141Z,2.72
2019-03-25T05:52:47.258Z,2.43
2019-03-25T05:57:56.261Z,2.60
2019-03-25T06:03:05.461Z,2.39
2019-03-25T06:08:14.494Z,2.41
2019-03-25T06:13:23.697Z,2.64
2019-03-25T06:18:32.781Z,2.60
2019-03-25T06:23:41.856Z,2.80
2019-03-25T06:28:50.882Z,2.61
2019-03-25T06:33:59.994Z,2.53
2019-03-25T06:39:09.253Z,2.60
2019-03-25T06:44:18.459Z,2.71
2019-03-25T06:49:27.486Z,3.11
2019-03-25T06:54:36.606Z,3.17
2019-03-25T06:59:45.706Z,2.89
2019-03-25T07:04:54.814Z,3.26
2019-03-25T07:10:03.874Z,2.85
2019-03-25T07:15:13.014Z,2.72
2019-03-25T07:20:22.081Z,2.49
2019-03-25T07:25:31.424Z,2.42
2019-03-25T07:30:40.521Z,2.69
2019-03-25T07:35:49.677Z,2.43
2019-03-25T07:40:58.734Z,2.73
2019-03-25T07:46:07.846Z,2.89
2019-03-25T07:51:16.917Z,2.86
2019-03-25T07:56:26.054Z,2.77
2019-03-25T08:01:35.113Z,2.47
2019-03-25T08:06:44.320Z,2.15
2019-03-25T08:11:53.988Z,2.03
2019-03-25T08:17:03.058Z,1.82
2019-03-25T08:22:12.055Z,1.39
2019-03-25T08:27:21.193Z,2.04
2019-03-25T08:32:30.241Z,1.74
2019-03-25T08:37:39.359Z,2.16
2019-03-25T08:42:48.430Z,2.12
2019-03-25T08:47:57.593Z,1.82
2019-03-25T08:53:06.660Z,2.53
2019-03-25T08:58:15.762Z,2.41
2019-03-25T09:03:24.810Z,2.42
2019-03-25T09:08:33.945Z,2.01
2019-03-25T09:13:43.156Z,1.99
2019-03-25T09:18:52.214Z,1.89
2019-03-25T09:24:01.276Z,2.13
2019-03-25T09:29:10.432Z,2.09
2019-03-25T09:34:19.489Z,2.28
2019-03-25T09:39:28.651Z,2.20
2019-03-25T09:44:37.659Z,2.24
2019-03-25T09:49:47.118Z,2.70
2019-03-25T09:54:56.190Z,2.69
2019-03-25T10:00:05.370Z,2.20
2019-03-25T10:05:14.450Z,2.36
2019-03-25T10:10:23.578Z,2.41
2019-03-25T10:15:32.809Z,2.62
2019-03-25T10:20:41.929Z,2.26
2019-03-25T10:25:50.946Z,2.39
2019-03-25T10:31:00.150Z,3.11
2019-03-25T10:36:09.371Z,2.38
2019-03-25T10:41:18.539Z,2.48
2019-03-25T10:46:27.604Z,2.93
2019-03-25T10:51:36.706Z,2.46
2019-03-25T10:56:49.235Z,2.37
2019-03-25T11:01:54.675Z,2.98
2019-03-25T11:07:03.782Z,2.78
2019-03-25T11:12:11.384Z,3.12
2019-03-25T11:17:20.432Z,3.05
2019-03-25T11:22:30.177Z,2.96
2019-03-25T11:27:38.219Z,2.46
2019-03-25T11:32:47.345Z,2.99
2019-03-25T11:37:56.394Z,2.95
2019-03-25T11:43:05.533Z,2.80
2019-03-25T11:48:14.533Z,3.01
2019-03-25T11:53:23.650Z,2.66
2019-03-25T11:58:32.986Z,2.80
2019-03-25T12:03:42.139Z,2.74
2019-03-25T12:08:51.178Z,3.05
2019-03-25T12:14:00.758Z,2.91
2019-03-25T12:19:09.974Z,2.73
2019-03-25T12:24:19.117Z,3.05
2019-03-25T12:29:30.502Z,3.09
2019-03-25T12:34:36.833Z,2.91
2019-03-25T12:39:45.878Z,2.96
2019-03-25T12:44:55.318Z,2.53
2019-03-25T12:50:04.370Z,2.55
2019-03-25T12:55:13.515Z,2.49
2019-03-25T13:00:22.697Z,2.75
2019-03-25T13:05:31.838Z,2.75
2019-03-25T13:10:40.894Z,2.52
2019-03-25T13:15:50.145Z,2.74
2019-03-25T13:20:59.226Z,3.28
2019-03-25T13:26:08.398Z,3.08
2019-03-25T13:31:17.450Z,3.14
2019-03-25T13:36:26.566Z,3.75
2019-03-25T13:41:35.594Z,3.62
2019-03-25T13:46:44.922Z,3.36
2019-03-25T13:51:53.971Z,4.07
2019-03-25T14:02:07.595Z,3.53
2019-03-25T14:07:16.857Z,3.33
2019-03-25T14:12:25.898Z,3.36
2019-03-25T14:17:35.071Z,3.04
2019-03-25T14:22:44.085Z,3.38
2019-03-25T14:27:53.161Z,3.25
2019-03-25T14:33:02.179Z,3.55
2019-03-25T14:38:11.614Z,3.12
2019-03-25T14:43:20.731Z,3.11
2019-03-25T14:48:29.870Z,3.72
2019-03-25T14:53:45.270Z,3.69
2019-03-25T14:58:47.577Z,3.47
2019-03-25T15:03:56.627Z,3.73
2019-03-25T15:09:05.749Z,3.22
2019-03-25T15:14:14.809Z,3.16
2019-03-25T15:19:23.953Z,3.24
2019-03-25T15:24:33.190Z,3.37
2019-03-25T15:29:42.346Z,3.21
2019-03-25T15:34:51.369Z,3.50
2019-03-25T15:40:00.505Z,2.93
2019-03-25T15:45:25.347Z,2.72
2019-03-25T15:50:14.440Z,2.92
2019-03-25T15:55:23.458Z,3.18
2019-03-25T16:00:32.582Z,4.24
2019-03-25T16:05:41.733Z,2.84
2019-03-25T16:10:51.871Z,3.43
2019-03-25T16:16:00.000Z,3.42
2019-03-25T16:21:10.143Z,3.32
2019-03-25T16:26:09.138Z,3.16
2019-03-25T16:31:18.279Z,3.25
2019-03-25T16:36:40.599Z,3.26
2019-03-25T16:41:28.985Z,3.03
2019-03-25T16:46:38.071Z,3.25
2019-03-25T16:51:47.309Z,3.20
2019-03-25T16:56:56.386Z,3.31
2019-03-25T17:02:05.524Z,3.24
2019-03-25T17:07:14.561Z,3.94
2019-03-25T17:12:23.722Z,3.15
2019-03-25T17:17:32.778Z,2.79
2019-03-25T17:22:41.902Z,2.97
2019-03-25T17:27:50.950Z,2.88
2019-03-25T17:33:00.200Z,2.29
2019-03-25T17:38:09.206Z,2.56
2019-03-25T17:43:18.322Z,3.21
2019-03-25T17:48:27.813Z,3.27
2019-03-25T17:53:37.214Z,3.65
2019-03-25T17:58:46.319Z,3.72
2019-03-25T18:03:59.818Z,2.98
2019-03-25T18:08:58.821Z,3.27
2019-03-25T18:14:07.987Z,3.37
2019-03-25T18:19:17.020Z,3.33
2019-03-25T18:24:26.225Z,2.96
2019-03-25T18:29:35.325Z,3.34
2019-03-25T18:34:44.424Z,2.82
2019-03-25T18:39:53.434Z,2.63
2019-03-25T18:45:03.327Z,2.22
2019-03-25T18:50:12.378Z,2.26
2019-03-25T18:55:21.574Z,2.16
2019-03-25T19:00:30.641Z,2.08
2019-03-25T19:05:39.881Z,1.69
2019-03-25T19:10:48.942Z,1.73
2019-03-25T19:15:58.119Z,2.05
2019-03-25T19:21:07.183Z,1.93
2019-03-25T19:26:16.274Z,2.24
2019-03-25T19:31:25.335Z,2.14
2019-03-25T19:36:34.446Z,2.53
2019-03-25T19:41:43.521Z,2.55
2019-03-25T19:46:52.652Z,2.42
2019-03-25T19:52:02.214Z,2.18
2019-03-25T19:57:11.336Z,2.49
2019-03-25T20:02:20.439Z,2.12
2019-03-25T20:07:29.604Z,2.81
2019-03-25T20:12:38.718Z,2.50
2019-03-25T20:17:47.899Z,2.36
2019-03-25T20:22:56.995Z,2.30
2019-03-25T20:28:06.701Z,2.21
2019-03-25T20:33:27.491Z,2.41
2019-03-25T20:38:16.621Z,2.31
2019-03-25T20:43:25.690Z,2.32
2019-03-25T20:48:34.794Z,2.36
2019-03-25T20:53:43.891Z,2.43
2019-03-25T20:58:52.946Z,1.94
2019-03-25T21:04:02.257Z,1.97
2019-03-25T21:09:11.405Z,1.79
2019-03-25T21:14:32.284Z,1.88
2019-03-25T21:19:21.330Z,1.99
2019-03-25T21:24:30.429Z,2.02
2019-03-25T21:29:39.804Z,1.91
2019-03-25T21:34:48.849Z,1.83
2019-03-25T21:39:57.957Z,2.20
2019-03-25T21:45:07.032Z,2.16
2019-03-25T21:50:16.138Z,2.34
2019-03-25T21:55:25.242Z,1.81
2019-03-25T22:00:34.457Z,1.90
2019-03-25T22:05:43.657Z,2.07
2019-03-25T22:10:52.889Z,1.92
2019-03-25T22:16:02.385Z,2.12
2019-03-25T22:21:11.850Z,2.57
2019-03-25T22:26:20.935Z,2.48
2019-03-25T22:31:30.016Z,2.41
2019-03-25T22:36:39.044Z,2.56
2019-03-25T22:41:48.199Z,2.25
2019-03-25T22:46:57.238Z,2.02
2019-03-25T22:52:06.846Z,2.73
2019-03-25T22:57:15.884Z,2.57
2019-03-25T23:02:25.069Z,2.49
2019-03-25T23:07:34.225Z,2.50
2019-03-25T23:12:43.299Z,2.32
2019-03-25T23:17:52.322Z,2.71
2019-03-25T23:23:01.553Z,3.15
2019-03-25T23:28:10.596Z,2.47
2019-03-25T23:33:19.738Z,2.71
2019-03-25T23:38:28.814Z,2.63
2019-03-25T23:43:37.997Z,2.93
2019-03-25T23:48:47.073Z,3.00
2019-03-25T23:53:56.202Z,3.04
2019-03-25T23:59:05.249Z,2.72
